sensor_id;sensor_type;location;lat;lon;timestamp;P1;durP1;ratioP1;P2;durP2;ratioP2
57778;SDS011;43608;49.486;9.640;2023-02-02T00:00:15;11.95;;;3.47;;
57778;SDS011;43608;49.486;9.640;2023-02-02T00:00:46;7.72;;;3.13;;
57778;SDS011;43608;49.486;9.640;2023-02-02T00:01:20;11.32;;;3.33;;
57778;SDS011;43608;49.486;9.640;2023-02-02T00:01:52;8.48;;;2.90;;
57778;SDS011;43608;49.486;9.640;2023-02-02T00:02:24;11.05;;;2.92;;
57778;SDS011;43608;49.486;9.640;2023-02-02T00:02:54;8.77;;;3.10;;
57778;SDS011;43608;49.486;9.640;2023-02-02T00:03:25;10.32;;;3.50;;
57778;SDS011;43608;49.486;9.640;2023-02-02T00:03:55;9.60;;;3.35;;
57778;SDS011;43608;49.486;9.640;2023-02-02T00:04:30;9.65;;;3.10;;
57778;SDS011;43608;49.486;9.640;2023-02-02T00:05:02;11.63;;;3.70;;
57778;SDS011;43608;49.486;9.640;2023-02-02T00:05:32;9.90;;;3.53;;
57778;SDS011;43608;49.486;9.640;2023-02-02T00:06:03;11.35;;;3.50;;
57778;SDS011;43608;49.486;9.640;2023-02-02T00:06:33;8.80;;;3.17;;
57778;SDS011;43608;49.486;9.640;2023-02-02T00:07:03;10.70;;;3.10;;
57778;SDS011;43608;49.486;9.640;2023-02-02T00:07:34;9.10;;;2.85;;
57778;SDS011;43608;49.486;9.640;2023-02-02T00:08:04;10.45;;;3.30;;
57778;SDS011;43608;49.486;9.640;2023-02-02T00:08:35;9.68;;;3.47;;
57778;SDS011;43608;49.486;9.640;2023-02-02T00:09:08;11.15;;;3.33;;
57778;SDS011;43608;49.486;9.640;2023-02-02T00:09:39;9.85;;;3.28;;
57778;SDS011;43608;49.486;9.640;2023-02-02T00:10:09;9.82;;;3.05;;
57778;SDS011;43608;49.486;9.640;2023-02-02T00:10:40;10.65;;;3.28;;
57778;SDS011;43608;49.486;9.640;2023-02-02T00:11:11;13.27;;;3.40;;
57778;SDS011;43608;49.486;9.640;2023-02-02T00:11:42;9.90;;;3.00;;
57778;SDS011;43608;49.486;9.640;2023-02-02T00:12:13;11.80;;;3.55;;
57778;SDS011;43608;49.486;9.640;2023-02-02T00:12:44;10.80;;;3.38;;
57778;SDS011;43608;49.486;9.640;2023-02-02T00:13:14;9.60;;;3.15;;
57778;SDS011;43608;49.486;9.640;2023-02-02T00:13:44;8.43;;;3.22;;
57778;SDS011;43608;49.486;9.640;2023-02-02T00:14:15;10.02;;;3.28;;
57778;SDS011;43608;49.486;9.640;2023-02-02T00:14:47;9.02;;;3.10;;
57778;SDS011;43608;49.486;9.640;2023-02-02T00:15:17;8.75;;;3.13;;
57778;SDS011;43608;49.486;9.640;2023-02-02T00:15:47;8.63;;;3.13;;
57778;SDS011;43608;49.486;9.640;2023-02-02T00:17:00;10.80;;;3.22;;
57778;SDS011;43608;49.486;9.640;2023-02-02T00:17:30;9.73;;;3.63;;
57778;SDS011;43608;49.486;9.640;2023-02-02T00:18:01;10.90;;;3.22;;
57778;SDS011;43608;49.486;9.640;2023-02-02T00:18:31;7.88;;;2.90;;
57778;SDS011;43608;49.486;9.640;2023-02-02T00:19:06;9.07;;;2.88;;
57778;SDS011;43608;49.486;9.640;2023-02-02T00:19:38;10.40;;;3.28;;
57778;SDS011;43608;49.486;9.640;2023-02-02T00:20:09;13.25;;;3.72;;
57778;SDS011;43608;49.486;9.640;2023-02-02T00:20:39;10.20;;;3.25;;
57778;SDS011;43608;49.486;9.640;2023-02-02T00:21:10;11.90;;;3.58;;
57778;SDS011;43608;49.486;9.640;2023-02-02T00:21:40;12.50;;;3.58;;
57778;SDS011;43608;49.486;9.640;2023-02-02T00:22:11;8.75;;;2.97;;
57778;SDS011;43608;49.486;9.640;2023-02-02T00:22:41;9.07;;;3.10;;
57778;SDS011;43608;49.486;9.640;2023-02-02T00:23:12;12.68;;;3.40;;
57778;SDS011;43608;49.486;9.640;2023-02-02T00:23:42;11.13;;;3.22;;
57778;SDS011;43608;49.486;9.640;2023-02-02T00:24:13;10.98;;;3.40;;
57778;SDS011;43608;49.486;9.640;2023-02-02T00:24:44;8.77;;;3.47;;
57778;SDS011;43608;49.486;9.640;2023-02-02T00:25:15;9.20;;;3.15;;
57778;SDS011;43608;49.486;9.640;2023-02-02T00:25:48;9.98;;;3.20;;
57778;SDS011;43608;49.486;9.640;2023-02-02T00:26:19;6.82;;;2.70;;
57778;SDS011;43608;49.486;9.640;2023-02-02T00:26:51;7.88;;;2.95;;
57778;SDS011;43608;49.486;9.640;2023-02-02T00:27:23;9.50;;;2.90;;
57778;SDS011;43608;49.486;9.640;2023-02-02T00:27:53;8.00;;;3.20;;
57778;SDS011;43608;49.486;9.640;2023-02-02T00:28:24;9.80;;;3.00;;
57778;SDS011;43608;49.486;9.640;2023-02-02T00:28:55;11.63;;;3.42;;
57778;SDS011;43608;49.486;9.640;2023-02-02T00:29:29;11.50;;;3.40;;
57778;SDS011;43608;49.486;9.640;2023-02-02T00:30:00;10.38;;;3.22;;
57778;SDS011;43608;49.486;9.640;2023-02-02T00:30:31;10.20;;;3.13;;
57778;SDS011;43608;49.486;9.640;2023-02-02T00:31:01;7.95;;;3.10;;
57778;SDS011;43608;49.486;9.640;2023-02-02T00:31:32;11.02;;;3.20;;
57778;SDS011;43608;49.486;9.640;2023-02-02T00:32:02;11.32;;;3.13;;
57778;SDS011;43608;49.486;9.640;2023-02-02T00:32:33;11.80;;;3.53;;
57778;SDS011;43608;49.486;9.640;2023-02-02T00:33:03;11.25;;;3.65;;
57778;SDS011;43608;49.486;9.640;2023-02-02T00:33:34;10.68;;;3.50;;
57778;SDS011;43608;49.486;9.640;2023-02-02T00:34:04;9.38;;;3.50;;
57778;SDS011;43608;49.486;9.640;2023-02-02T00:34:34;8.40;;;3.33;;
57778;SDS011;43608;49.486;9.640;2023-02-02T00:35:05;8.48;;;3.50;;
57778;SDS011;43608;49.486;9.640;2023-02-02T00:35:39;10.68;;;3.22;;
57778;SDS011;43608;49.486;9.640;2023-02-02T00:36:10;9.77;;;3.38;;
57778;SDS011;43608;49.486;9.640;2023-02-02T00:36:40;9.57;;;3.10;;
57778;SDS011;43608;49.486;9.640;2023-02-02T00:37:12;9.68;;;2.95;;
57778;SDS011;43608;49.486;9.640;2023-02-02T00:37:42;9.65;;;3.13;;
57778;SDS011;43608;49.486;9.640;2023-02-02T00:38:12;7.32;;;2.90;;
57778;SDS011;43608;49.486;9.640;2023-02-02T00:38:43;8.80;;;3.22;;
57778;SDS011;43608;49.486;9.640;2023-02-02T00:39:16;10.13;;;3.15;;
57778;SDS011;43608;49.486;9.640;2023-02-02T00:39:48;9.73;;;3.50;;
57778;SDS011;43608;49.486;9.640;2023-02-02T00:40:18;8.88;;;2.92;;
57778;SDS011;43608;49.486;9.640;2023-02-02T00:40:49;10.77;;;3.47;;
57778;SDS011;43608;49.486;9.640;2023-02-02T00:41:19;9.60;;;3.53;;
57778;SDS011;43608;49.486;9.640;2023-02-02T00:41:51;8.60;;;3.17;;
57778;SDS011;43608;49.486;9.640;2023-02-02T00:42:22;8.60;;;3.17;;
57778;SDS011;43608;49.486;9.640;2023-02-02T00:42:52;9.05;;;3.22;;
57778;SDS011;43608;49.486;9.640;2023-02-02T00:43:22;10.25;;;3.50;;
57778;SDS011;43608;49.486;9.640;2023-02-02T00:43:53;8.10;;;3.65;;
57778;SDS011;43608;49.486;9.640;2023-02-02T00:44:43;12.38;;;3.40;;
57778;SDS011;43608;49.486;9.640;2023-02-02T00:45:32;11.30;;;3.50;;
57778;SDS011;43608;49.486;9.640;2023-02-02T00:46:03;9.80;;;3.15;;
57778;SDS011;43608;49.486;9.640;2023-02-02T00:46:33;8.57;;;3.13;;
57778;SDS011;43608;49.486;9.640;2023-02-02T00:47:07;9.98;;;3.13;;
57778;SDS011;43608;49.486;9.640;2023-02-02T00:47:38;9.77;;;3.50;;
57778;SDS011;43608;49.486;9.640;2023-02-02T00:48:08;8.75;;;3.25;;
57778;SDS011;43608;49.486;9.640;2023-02-02T00:48:39;11.25;;;3.30;;
57778;SDS011;43608;49.486;9.640;2023-02-02T00:49:10;8.30;;;3.33;;
57778;SDS011;43608;49.486;9.640;2023-02-02T00:49:40;10.63;;;3.13;;
57778;SDS011;43608;49.486;9.640;2023-02-02T00:50:12;11.95;;;3.65;;
57778;SDS011;43608;49.486;9.640;2023-02-02T00:50:48;9.35;;;3.17;;
57778;SDS011;43608;49.486;9.640;2023-02-02T00:51:18;10.10;;;3.10;;
57778;SDS011;43608;49.486;9.640;2023-02-02T00:51:48;9.30;;;3.25;;
57778;SDS011;43608;49.486;9.640;2023-02-02T00:52:19;11.68;;;3.65;;
57778;SDS011;43608;49.486;9.640;2023-02-02T00:52:49;12.13;;;3.30;;
57778;SDS011;43608;49.486;9.640;2023-02-02T00:53:20;12.10;;;3.38;;
57778;SDS011;43608;49.486;9.640;2023-02-02T00:53:50;9.57;;;3.03;;
57778;SDS011;43608;49.486;9.640;2023-02-02T00:54:20;8.85;;;3.47;;
57778;SDS011;43608;49.486;9.640;2023-02-02T00:54:51;9.95;;;3.78;;
57778;SDS011;43608;49.486;9.640;2023-02-02T00:55:21;8.30;;;3.38;;
57778;SDS011;43608;49.486;9.640;2023-02-02T00:55:52;11.00;;;3.63;;
57778;SDS011;43608;49.486;9.640;2023-02-02T00:56:22;9.45;;;3.10;;
57778;SDS011;43608;49.486;9.640;2023-02-02T00:56:52;10.30;;;3.45;;
57778;SDS011;43608;49.486;9.640;2023-02-02T00:57:23;14.48;;;3.67;;
57778;SDS011;43608;49.486;9.640;2023-02-02T00:57:53;9.40;;;3.20;;
57778;SDS011;43608;49.486;9.640;2023-02-02T00:58:23;7.90;;;3.08;;
57778;SDS011;43608;49.486;9.640;2023-02-02T00:58:54;14.20;;;3.97;;
57778;SDS011;43608;49.486;9.640;2023-02-02T00:59:25;9.00;;;3.13;;
57778;SDS011;43608;49.486;9.640;2023-02-02T00:59:55;7.53;;;2.75;;
57778;SDS011;43608;49.486;9.640;2023-02-02T01:00:25;10.40;;;3.00;;
57778;SDS011;43608;49.486;9.640;2023-02-02T01:00:56;10.10;;;3.25;;
57778;SDS011;43608;49.486;9.640;2023-02-02T01:01:26;9.93;;;3.33;;
57778;SDS011;43608;49.486;9.640;2023-02-02T01:01:56;7.25;;;3.08;;
57778;SDS011;43608;49.486;9.640;2023-02-02T01:02:27;8.07;;;3.30;;
57778;SDS011;43608;49.486;9.640;2023-02-02T01:02:57;9.00;;;2.90;;
57778;SDS011;43608;49.486;9.640;2023-02-02T01:03:33;7.80;;;3.05;;
57778;SDS011;43608;49.486;9.640;2023-02-02T01:04:03;6.10;;;2.70;;
57778;SDS011;43608;49.486;9.640;2023-02-02T01:04:34;8.85;;;3.05;;
57778;SDS011;43608;49.486;9.640;2023-02-02T01:05:04;7.07;;;2.78;;
57778;SDS011;43608;49.486;9.640;2023-02-02T01:05:35;7.93;;;2.70;;
57778;SDS011;43608;49.486;9.640;2023-02-02T01:06:05;8.75;;;2.85;;
57778;SDS011;43608;49.486;9.640;2023-02-02T01:06:36;5.38;;;2.55;;
57778;SDS011;43608;49.486;9.640;2023-02-02T01:07:06;9.30;;;2.90;;
57778;SDS011;43608;49.486;9.640;2023-02-02T01:07:36;7.10;;;2.88;;
57778;SDS011;43608;49.486;9.640;2023-02-02T01:08:07;7.25;;;2.50;;
57778;SDS011;43608;49.486;9.640;2023-02-02T01:08:39;7.03;;;3.30;;
57778;SDS011;43608;49.486;9.640;2023-02-02T01:09:09;10.10;;;3.05;;
57778;SDS011;43608;49.486;9.640;2023-02-02T01:09:40;8.10;;;3.00;;
57778;SDS011;43608;49.486;9.640;2023-02-02T01:10:12;7.53;;;3.03;;
57778;SDS011;43608;49.486;9.640;2023-02-02T01:10:44;11.18;;;3.15;;
57778;SDS011;43608;49.486;9.640;2023-02-02T01:11:15;9.48;;;2.97;;
57778;SDS011;43608;49.486;9.640;2023-02-02T01:11:45;7.75;;;2.92;;
57778;SDS011;43608;49.486;9.640;2023-02-02T01:12:16;10.85;;;3.00;;
57778;SDS011;43608;49.486;9.640;2023-02-02T01:12:46;9.35;;;3.30;;
57778;SDS011;43608;49.486;9.640;2023-02-02T01:13:17;8.82;;;3.05;;
57778;SDS011;43608;49.486;9.640;2023-02-02T01:13:47;9.40;;;2.92;;
57778;SDS011;43608;49.486;9.640;2023-02-02T01:14:17;7.30;;;3.03;;
57778;SDS011;43608;49.486;9.640;2023-02-02T01:14:48;10.82;;;3.08;;
57778;SDS011;43608;49.486;9.640;2023-02-02T01:15:18;8.32;;;2.95;;
57778;SDS011;43608;49.486;9.640;2023-02-02T01:15:48;8.18;;;3.03;;
57778;SDS011;43608;49.486;9.640;2023-02-02T01:16:24;9.60;;;3.00;;
57778;SDS011;43608;49.486;9.640;2023-02-02T01:16:57;9.63;;;3.25;;
57778;SDS011;43608;49.486;9.640;2023-02-02T01:17:28;7.18;;;2.90;;
57778;SDS011;43608;49.486;9.640;2023-02-02T01:17:58;11.00;;;3.13;;
57778;SDS011;43608;49.486;9.640;2023-02-02T01:18:29;10.15;;;3.22;;
57778;SDS011;43608;49.486;9.640;2023-02-02T01:19:00;10.45;;;3.30;;
57778;SDS011;43608;49.486;9.640;2023-02-02T01:19:30;8.52;;;3.10;;
57778;SDS011;43608;49.486;9.640;2023-02-02T01:20:01;8.18;;;3.20;;
57778;SDS011;43608;49.486;9.640;2023-02-02T01:20:32;8.55;;;3.30;;
57778;SDS011;43608;49.486;9.640;2023-02-02T01:21:06;7.63;;;2.78;;
57778;SDS011;43608;49.486;9.640;2023-02-02T01:21:38;9.18;;;3.17;;
57778;SDS011;43608;49.486;9.640;2023-02-02T01:22:08;11.20;;;3.50;;
57778;SDS011;43608;49.486;9.640;2023-02-02T01:22:39;10.68;;;3.30;;
57778;SDS011;43608;49.486;9.640;2023-02-02T01:23:09;8.80;;;3.45;;
57778;SDS011;43608;49.486;9.640;2023-02-02T01:23:40;9.85;;;3.10;;
57778;SDS011;43608;49.486;9.640;2023-02-02T01:24:10;6.82;;;2.72;;
57778;SDS011;43608;49.486;9.640;2023-02-02T01:24:40;9.80;;;3.22;;
57778;SDS011;43608;49.486;9.640;2023-02-02T01:25:11;8.98;;;3.00;;
57778;SDS011;43608;49.486;9.640;2023-02-02T01:25:41;9.88;;;3.28;;
57778;SDS011;43608;49.486;9.640;2023-02-02T01:26:12;8.10;;;3.03;;
57778;SDS011;43608;49.486;9.640;2023-02-02T01:26:43;8.15;;;3.35;;
57778;SDS011;43608;49.486;9.640;2023-02-02T01:27:13;7.20;;;3.13;;
57778;SDS011;43608;49.486;9.640;2023-02-02T01:27:44;9.98;;;3.35;;
57778;SDS011;43608;49.486;9.640;2023-02-02T01:28:14;8.68;;;3.10;;
57778;SDS011;43608;49.486;9.640;2023-02-02T01:28:45;8.15;;;3.40;;
57778;SDS011;43608;49.486;9.640;2023-02-02T01:29:15;8.32;;;3.10;;
57778;SDS011;43608;49.486;9.640;2023-02-02T01:29:46;11.05;;;3.17;;
57778;SDS011;43608;49.486;9.640;2023-02-02T01:30:16;7.25;;;2.78;;
57778;SDS011;43608;49.486;9.640;2023-02-02T01:30:46;6.50;;;2.67;;
57778;SDS011;43608;49.486;9.640;2023-02-02T01:31:18;10.60;;;3.25;;
57778;SDS011;43608;49.486;9.640;2023-02-02T01:31:49;8.70;;;2.88;;
57778;SDS011;43608;49.486;9.640;2023-02-02T01:32:19;8.07;;;3.05;;
57778;SDS011;43608;49.486;9.640;2023-02-02T01:32:50;10.70;;;3.20;;
57778;SDS011;43608;49.486;9.640;2023-02-02T01:33:21;7.85;;;2.75;;
57778;SDS011;43608;49.486;9.640;2023-02-02T01:33:52;8.52;;;3.03;;
57778;SDS011;43608;49.486;9.640;2023-02-02T01:34:22;7.53;;;3.03;;
57778;SDS011;43608;49.486;9.640;2023-02-02T01:34:53;8.20;;;2.90;;
57778;SDS011;43608;49.486;9.640;2023-02-02T01:35:23;7.53;;;3.28;;
57778;SDS011;43608;49.486;9.640;2023-02-02T01:35:54;8.60;;;3.10;;
57778;SDS011;43608;49.486;9.640;2023-02-02T01:36:25;7.50;;;2.80;;
57778;SDS011;43608;49.486;9.640;2023-02-02T01:36:55;8.90;;;2.95;;
57778;SDS011;43608;49.486;9.640;2023-02-02T01:37:25;7.53;;;3.13;;
57778;SDS011;43608;49.486;9.640;2023-02-02T01:37:56;7.22;;;2.53;;
57778;SDS011;43608;49.486;9.640;2023-02-02T01:38:26;8.05;;;3.10;;
57778;SDS011;43608;49.486;9.640;2023-02-02T01:38:57;7.85;;;2.92;;
57778;SDS011;43608;49.486;9.640;2023-02-02T01:39:27;9.07;;;3.17;;
57778;SDS011;43608;49.486;9.640;2023-02-02T01:39:57;8.30;;;2.90;;
57778;SDS011;43608;49.486;9.640;2023-02-02T01:40:28;7.53;;;3.03;;
57778;SDS011;43608;49.486;9.640;2023-02-02T01:40:58;12.43;;;3.30;;
57778;SDS011;43608;49.486;9.640;2023-02-02T01:41:28;10.00;;;3.80;;
57778;SDS011;43608;49.486;9.640;2023-02-02T01:41:59;10.50;;;3.60;;
57778;SDS011;43608;49.486;9.640;2023-02-02T01:42:32;9.13;;;3.22;;
57778;SDS011;43608;49.486;9.640;2023-02-02T01:43:02;8.13;;;2.80;;
57778;SDS011;43608;49.486;9.640;2023-02-02T01:43:55;9.85;;;3.17;;
57778;SDS011;43608;49.486;9.640;2023-02-02T01:45:28;10.48;;;3.33;;
57778;SDS011;43608;49.486;9.640;2023-02-02T01:45:59;8.43;;;3.35;;
57778;SDS011;43608;49.486;9.640;2023-02-02T01:46:33;11.02;;;3.45;;
57778;SDS011;43608;49.486;9.640;2023-02-02T01:47:05;7.80;;;3.00;;
57778;SDS011;43608;49.486;9.640;2023-02-02T01:47:36;8.60;;;2.92;;
57778;SDS011;43608;49.486;9.640;2023-02-02T01:48:11;8.00;;;3.08;;
57778;SDS011;43608;49.486;9.640;2023-02-02T01:48:44;7.78;;;3.05;;
57778;SDS011;43608;49.486;9.640;2023-02-02T01:49:18;8.32;;;3.10;;
57778;SDS011;43608;49.486;9.640;2023-02-02T01:49:49;10.30;;;3.17;;
57778;SDS011;43608;49.486;9.640;2023-02-02T01:50:22;8.20;;;3.00;;
57778;SDS011;43608;49.486;9.640;2023-02-02T01:50:58;8.80;;;3.25;;
57778;SDS011;43608;49.486;9.640;2023-02-02T01:51:37;10.02;;;3.33;;
57778;SDS011;43608;49.486;9.640;2023-02-02T01:52:29;5.93;;;2.80;;
57778;SDS011;43608;49.486;9.640;2023-02-02T01:53:04;9.40;;;3.10;;
57778;SDS011;43608;49.486;9.640;2023-02-02T01:53:36;8.27;;;2.78;;
57778;SDS011;43608;49.486;9.640;2023-02-02T01:54:08;8.20;;;2.80;;
57778;SDS011;43608;49.486;9.640;2023-02-02T01:54:50;8.38;;;2.75;;
57778;SDS011;43608;49.486;9.640;2023-02-02T01:55:27;7.85;;;2.67;;
57778;SDS011;43608;49.486;9.640;2023-02-02T01:56:01;7.90;;;3.00;;
57778;SDS011;43608;49.486;9.640;2023-02-02T01:56:37;7.35;;;2.90;;
57778;SDS011;43608;49.486;9.640;2023-02-02T01:58:02;9.52;;;3.20;;
57778;SDS011;43608;49.486;9.640;2023-02-02T01:58:59;6.47;;;2.75;;
57778;SDS011;43608;49.486;9.640;2023-02-02T01:59:31;9.23;;;2.85;;
57778;SDS011;43608;49.486;9.640;2023-02-02T02:00:03;7.35;;;2.50;;
57778;SDS011;43608;49.486;9.640;2023-02-02T02:00:37;7.20;;;2.53;;
57778;SDS011;43608;49.486;9.640;2023-02-02T02:01:10;7.95;;;2.75;;
57778;SDS011;43608;49.486;9.640;2023-02-02T02:01:41;6.63;;;2.80;;
57778;SDS011;43608;49.486;9.640;2023-02-02T02:02:12;8.38;;;3.03;;
57778;SDS011;43608;49.486;9.640;2023-02-02T02:02:45;8.18;;;2.90;;
57778;SDS011;43608;49.486;9.640;2023-02-02T02:03:19;7.00;;;2.92;;
57778;SDS011;43608;49.486;9.640;2023-02-02T02:03:51;8.25;;;2.88;;
57778;SDS011;43608;49.486;9.640;2023-02-02T02:04:23;7.82;;;2.88;;
57778;SDS011;43608;49.486;9.640;2023-02-02T02:04:56;8.55;;;2.80;;
57778;SDS011;43608;49.486;9.640;2023-02-02T02:05:32;7.32;;;2.50;;
57778;SDS011;43608;49.486;9.640;2023-02-02T02:06:07;8.85;;;2.80;;
57778;SDS011;43608;49.486;9.640;2023-02-02T02:06:40;6.35;;;2.70;;
57778;SDS011;43608;49.486;9.640;2023-02-02T02:07:11;9.07;;;3.20;;
57778;SDS011;43608;49.486;9.640;2023-02-02T02:07:42;8.40;;;2.92;;
57778;SDS011;43608;49.486;9.640;2023-02-02T02:08:17;6.70;;;2.78;;
57778;SDS011;43608;49.486;9.640;2023-02-02T02:08:55;7.72;;;2.92;;
57778;SDS011;43608;49.486;9.640;2023-02-02T02:09:29;6.10;;;2.78;;
57778;SDS011;43608;49.486;9.640;2023-02-02T02:09:59;7.85;;;2.95;;
57778;SDS011;43608;49.486;9.640;2023-02-02T02:10:30;8.07;;;3.05;;
57778;SDS011;43608;49.486;9.640;2023-02-02T02:11:00;7.18;;;3.10;;
57778;SDS011;43608;49.486;9.640;2023-02-02T02:11:32;7.32;;;2.92;;
57778;SDS011;43608;49.486;9.640;2023-02-02T02:12:09;9.98;;;3.00;;
57778;SDS011;43608;49.486;9.640;2023-02-02T02:12:43;8.60;;;3.17;;
57778;SDS011;43608;49.486;9.640;2023-02-02T02:13:15;7.00;;;2.95;;
57778;SDS011;43608;49.486;9.640;2023-02-02T02:13:47;7.57;;;2.75;;
57778;SDS011;43608;49.486;9.640;2023-02-02T02:14:39;8.02;;;3.00;;
57778;SDS011;43608;49.486;9.640;2023-02-02T02:15:28;8.65;;;2.83;;
57778;SDS011;43608;49.486;9.640;2023-02-02T02:18:44;9.52;;;2.85;;
57778;SDS011;43608;49.486;9.640;2023-02-02T02:22:26;5.63;;;2.50;;
57778;SDS011;43608;49.486;9.640;2023-02-02T02:25:19;5.13;;;2.63;;
57778;SDS011;43608;49.486;9.640;2023-02-02T02:27:10;5.75;;;2.53;;
57778;SDS011;43608;49.486;9.640;2023-02-02T02:31:49;6.00;;;2.38;;
57778;SDS011;43608;49.486;9.640;2023-02-02T02:33:23;7.80;;;2.33;;
57778;SDS011;43608;49.486;9.640;2023-02-02T02:34:52;4.82;;;2.40;;
57778;SDS011;43608;49.486;9.640;2023-02-02T02:35:40;5.63;;;2.50;;
57778;SDS011;43608;49.486;9.640;2023-02-02T02:36:39;6.20;;;2.35;;
57778;SDS011;43608;49.486;9.640;2023-02-02T02:39:31;7.40;;;2.75;;
57778;SDS011;43608;49.486;9.640;2023-02-02T02:40:05;3.53;;;1.98;;
57778;SDS011;43608;49.486;9.640;2023-02-02T02:41:15;6.75;;;2.53;;
57778;SDS011;43608;49.486;9.640;2023-02-02T02:41:52;5.80;;;2.40;;
57778;SDS011;43608;49.486;9.640;2023-02-02T02:42:29;5.68;;;2.30;;
57778;SDS011;43608;49.486;9.640;2023-02-02T02:43:06;6.32;;;2.42;;
57778;SDS011;43608;49.486;9.640;2023-02-02T02:43:43;8.90;;;2.63;;
57778;SDS011;43608;49.486;9.640;2023-02-02T02:44:17;7.47;;;2.58;;
57778;SDS011;43608;49.486;9.640;2023-02-02T02:44:50;6.22;;;2.30;;
57778;SDS011;43608;49.486;9.640;2023-02-02T02:45:25;5.32;;;2.45;;
57778;SDS011;43608;49.486;9.640;2023-02-02T02:45:57;5.60;;;2.33;;
57778;SDS011;43608;49.486;9.640;2023-02-02T02:46:27;5.07;;;2.30;;
57778;SDS011;43608;49.486;9.640;2023-02-02T02:46:58;5.53;;;2.05;;
57778;SDS011;43608;49.486;9.640;2023-02-02T02:47:29;4.97;;;2.22;;
57778;SDS011;43608;49.486;9.640;2023-02-02T02:48:01;6.30;;;2.28;;
57778;SDS011;43608;49.486;9.640;2023-02-02T02:48:32;5.47;;;2.53;;
57778;SDS011;43608;49.486;9.640;2023-02-02T02:49:02;6.13;;;2.22;;
57778;SDS011;43608;49.486;9.640;2023-02-02T02:49:40;5.35;;;2.20;;
57778;SDS011;43608;49.486;9.640;2023-02-02T02:50:12;6.00;;;2.17;;
57778;SDS011;43608;49.486;9.640;2023-02-02T02:50:42;5.28;;;2.20;;
57778;SDS011;43608;49.486;9.640;2023-02-02T02:52:06;4.30;;;2.15;;
57778;SDS011;43608;49.486;9.640;2023-02-02T02:52:37;6.47;;;2.55;;
57778;SDS011;43608;49.486;9.640;2023-02-02T02:53:14;7.72;;;2.80;;
57778;SDS011;43608;49.486;9.640;2023-02-02T02:53:47;5.70;;;2.38;;
57778;SDS011;43608;49.486;9.640;2023-02-02T02:54:54;6.50;;;2.42;;
57778;SDS011;43608;49.486;9.640;2023-02-02T02:55:26;5.22;;;2.35;;
57778;SDS011;43608;49.486;9.640;2023-02-02T02:56:12;4.25;;;2.03;;
57778;SDS011;43608;49.486;9.640;2023-02-02T03:00:11;4.50;;;1.85;;
57778;SDS011;43608;49.486;9.640;2023-02-02T03:03:39;5.47;;;2.17;;
57778;SDS011;43608;49.486;9.640;2023-02-02T03:04:55;5.80;;;2.15;;
57778;SDS011;43608;49.486;9.640;2023-02-02T03:05:25;3.35;;;1.92;;
57778;SDS011;43608;49.486;9.640;2023-02-02T03:06:11;2.65;;;1.88;;
57778;SDS011;43608;49.486;9.640;2023-02-02T03:06:52;4.22;;;2.22;;
57778;SDS011;43608;49.486;9.640;2023-02-02T03:07:32;4.35;;;2.25;;
57778;SDS011;43608;49.486;9.640;2023-02-02T03:08:46;5.40;;;2.20;;
57778;SDS011;43608;49.486;9.640;2023-02-02T03:09:18;3.95;;;2.00;;
57778;SDS011;43608;49.486;9.640;2023-02-02T03:09:54;3.78;;;2.10;;
57778;SDS011;43608;49.486;9.640;2023-02-02T03:10:30;2.90;;;1.92;;
57778;SDS011;43608;49.486;9.640;2023-02-02T03:11:01;6.70;;;2.38;;
57778;SDS011;43608;49.486;9.640;2023-02-02T03:11:35;5.22;;;2.05;;
57778;SDS011;43608;49.486;9.640;2023-02-02T03:12:05;5.40;;;2.10;;
57778;SDS011;43608;49.486;9.640;2023-02-02T03:12:43;4.85;;;2.30;;
57778;SDS011;43608;49.486;9.640;2023-02-02T03:13:17;4.22;;;2.00;;
57778;SDS011;43608;49.486;9.640;2023-02-02T03:13:47;4.15;;;2.00;;
57778;SDS011;43608;49.486;9.640;2023-02-02T03:14:18;5.38;;;2.17;;
57778;SDS011;43608;49.486;9.640;2023-02-02T03:14:49;4.47;;;2.10;;
57778;SDS011;43608;49.486;9.640;2023-02-02T03:15:19;5.30;;;2.35;;
57778;SDS011;43608;49.486;9.640;2023-02-02T03:15:49;4.65;;;2.10;;
57778;SDS011;43608;49.486;9.640;2023-02-02T03:16:20;3.40;;;2.05;;
57778;SDS011;43608;49.486;9.640;2023-02-02T03:16:51;3.50;;;2.10;;
57778;SDS011;43608;49.486;9.640;2023-02-02T03:17:21;4.40;;;2.10;;
57778;SDS011;43608;49.486;9.640;2023-02-02T03:17:52;5.05;;;2.00;;
57778;SDS011;43608;49.486;9.640;2023-02-02T03:18:24;5.57;;;2.13;;
57778;SDS011;43608;49.486;9.640;2023-02-02T03:18:57;3.17;;;1.70;;
57778;SDS011;43608;49.486;9.640;2023-02-02T03:19:27;5.93;;;2.13;;
57778;SDS011;43608;49.486;9.640;2023-02-02T03:19:58;5.65;;;1.92;;
57778;SDS011;43608;49.486;9.640;2023-02-02T03:20:28;4.85;;;1.90;;
57778;SDS011;43608;49.486;9.640;2023-02-02T03:20:59;4.25;;;2.20;;
57778;SDS011;43608;49.486;9.640;2023-02-02T03:21:30;5.13;;;2.00;;
57778;SDS011;43608;49.486;9.640;2023-02-02T03:22:01;4.10;;;1.92;;
57778;SDS011;43608;49.486;9.640;2023-02-02T03:22:31;2.72;;;1.65;;
57778;SDS011;43608;49.486;9.640;2023-02-02T03:23:02;4.32;;;2.10;;
57778;SDS011;43608;49.486;9.640;2023-02-02T03:23:32;4.00;;;2.03;;
57778;SDS011;43608;49.486;9.640;2023-02-02T03:24:03;4.30;;;2.00;;
57778;SDS011;43608;49.486;9.640;2023-02-02T03:24:33;5.40;;;2.15;;
57778;SDS011;43608;49.486;9.640;2023-02-02T03:25:05;4.40;;;1.90;;
57778;SDS011;43608;49.486;9.640;2023-02-02T03:25:36;3.53;;;1.80;;
57778;SDS011;43608;49.486;9.640;2023-02-02T03:26:06;3.13;;;1.88;;
57778;SDS011;43608;49.486;9.640;2023-02-02T03:26:37;3.88;;;1.88;;
57778;SDS011;43608;49.486;9.640;2023-02-02T03:27:07;3.03;;;1.77;;
57778;SDS011;43608;49.486;9.640;2023-02-02T03:27:38;2.63;;;1.80;;
57778;SDS011;43608;49.486;9.640;2023-02-02T03:28:09;3.75;;;1.73;;
57778;SDS011;43608;49.486;9.640;2023-02-02T03:28:39;4.45;;;1.90;;
57778;SDS011;43608;49.486;9.640;2023-02-02T03:29:10;4.10;;;1.70;;
57778;SDS011;43608;49.486;9.640;2023-02-02T03:29:41;4.95;;;2.13;;
57778;SDS011;43608;49.486;9.640;2023-02-02T03:30:12;3.40;;;2.10;;
57778;SDS011;43608;49.486;9.640;2023-02-02T03:30:43;4.32;;;2.22;;
57778;SDS011;43608;49.486;9.640;2023-02-02T03:31:14;4.82;;;1.90;;
57778;SDS011;43608;49.486;9.640;2023-02-02T03:31:45;3.40;;;2.00;;
57778;SDS011;43608;49.486;9.640;2023-02-02T03:32:16;3.83;;;1.98;;
57778;SDS011;43608;49.486;9.640;2023-02-02T03:32:47;4.85;;;1.90;;
57778;SDS011;43608;49.486;9.640;2023-02-02T03:33:19;5.20;;;2.10;;
57778;SDS011;43608;49.486;9.640;2023-02-02T03:33:50;4.65;;;2.05;;
57778;SDS011;43608;49.486;9.640;2023-02-02T03:34:20;4.25;;;1.90;;
57778;SDS011;43608;49.486;9.640;2023-02-02T03:34:51;3.28;;;2.10;;
57778;SDS011;43608;49.486;9.640;2023-02-02T03:35:21;3.22;;;1.80;;
57778;SDS011;43608;49.486;9.640;2023-02-02T03:35:51;3.65;;;1.83;;
57778;SDS011;43608;49.486;9.640;2023-02-02T03:36:22;3.75;;;2.03;;
57778;SDS011;43608;49.486;9.640;2023-02-02T03:36:52;4.82;;;2.17;;
57778;SDS011;43608;49.486;9.640;2023-02-02T03:37:23;4.90;;;2.00;;
57778;SDS011;43608;49.486;9.640;2023-02-02T03:37:53;3.33;;;1.77;;
57778;SDS011;43608;49.486;9.640;2023-02-02T03:38:24;3.08;;;1.83;;
57778;SDS011;43608;49.486;9.640;2023-02-02T03:38:54;5.15;;;1.80;;
57778;SDS011;43608;49.486;9.640;2023-02-02T03:39:25;3.88;;;1.90;;
57778;SDS011;43608;49.486;9.640;2023-02-02T03:39:55;3.65;;;1.77;;
57778;SDS011;43608;49.486;9.640;2023-02-02T03:40:26;3.55;;;1.85;;
57778;SDS011;43608;49.486;9.640;2023-02-02T03:40:58;6.32;;;2.42;;
57778;SDS011;43608;49.486;9.640;2023-02-02T03:41:28;4.55;;;2.33;;
57778;SDS011;43608;49.486;9.640;2023-02-02T03:41:58;6.30;;;2.28;;
57778;SDS011;43608;49.486;9.640;2023-02-02T03:42:29;5.78;;;2.13;;
57778;SDS011;43608;49.486;9.640;2023-02-02T03:42:59;4.93;;;2.08;;
57778;SDS011;43608;49.486;9.640;2023-02-02T03:43:30;5.63;;;2.10;;